Aeroporto :
LOGIN :

Iscrizione | Disclaimer

   EN    FR    IT 

 










Sommario :    VFR   VFR Marginale   IFR   IFR Intensivo   IFR Molto Intensivo
Visibilità : 
Base nubi : 
>= 8 km
>= 3000ft
5 / 8 km
1000 / 3000 ft
1500m / 5 km
500 / 1000 ft
800 / 1500m
200 / 500 ft
< 800m
< 200 ft
Simboli :   Temporali  Nebbia  Neve Forte  Precipitazioni Forti  Vento > 20 kt
SIGMETs :   Varie  Temporali  Ghiacco  Turbolenza  Onda orograficha  Ceneri Vulcaniche






- Altitudine del aeroporto : 203 ft
- Codice IATA : XMJ


LFBM - Mont-De-Marsan

ULTIMO METAR :
  • 042130Z AUTO 25006KT CAVOK 15/12 Q1010 NOSIG

METARs OBSOLETI :
  • 042100Z AUTO 27006KT CAVOK 15/12 Q1009 NOSIG
  • 042030Z AUTO 27008KT CAVOK 15/12 Q1009 NOSIG
  • 042000Z AUTO 28008KT 9999 FEW030 15/12 Q1008 TEMPO 4000 SHRA BECMG BKN030 BKN050CB
  • 041930Z AUTO 28009KT 9999 FEW034 16/11 Q1007 TEMPO 4000 SHRA BECMG BKN030 BKN050CB
  • 041900Z AUTO 28009KT 9999 SCT029 SCT054 17/12 Q1007 TEMPO 4000 SHRA BECMG BKN030 BKN050CB

TAF TAF LFBM
Valido dal 04 a 21 ore il 05 a 21 ore UTC


042000Z 0421/0521 27010KT 9999 FEW030
BECMG 0509/0511 4000 RA
BECMG 0514/0515 9999 NSW



MetMap, La meteo Aeronautica in un colpo d'occhio ! - Copyright ORBIFLY Dicembre 2007 - Disclaimer

ORBIFLY MET'MAP TEAM :

Programmazione e sviluppo : Alexandra Zaïnal
Concezione : Baudouin d'Aumeries
Aiuto per la programmazione : Marc-Olivier Méhu
Supporto tecnico e logistico : Manuel Goepfert
Aiuto per la traduzione : Arnaldo La Scala

Contatto : metmap@orbifly.com




FONTI E CREDITI :

   NOAA